createdAt,value
2023-03-21T00:01:03.850Z,8.60
2023-03-21T00:06:11.690Z,9.15
2023-03-21T00:11:14.412Z,7.13
2023-03-21T00:16:21.406Z,8.07
2023-03-21T00:21:46.508Z,9.07
2023-03-21T00:26:53.977Z,11.18
2023-03-21T00:37:01.560Z,8.13
2023-03-21T00:42:03.918Z,7.18
2023-03-21T00:47:08.199Z,9.57
2023-03-21T00:52:30.570Z,8.18
2023-03-21T00:57:39.005Z,9.55
2023-03-21T01:03:02.528Z,10.75
2023-03-21T01:08:20.638Z,8.10
2023-03-21T01:13:25.918Z,8.30
2023-03-21T01:18:29.979Z,10.93
2023-03-21T01:23:31.671Z,8.98
2023-03-21T01:28:34.382Z,11.00
2023-03-21T01:38:38.089Z,9.93
2023-03-21T01:43:40.713Z,8.27
2023-03-21T01:48:44.297Z,7.78
2023-03-21T01:53:47.482Z,9.57
2023-03-21T01:58:50.944Z,8.70
2023-03-21T02:04:04.968Z,10.52
2023-03-21T02:09:31.826Z,8.70
2023-03-21T02:14:36.088Z,10.10
2023-03-21T02:20:17.621Z,10.60
2023-03-21T02:25:22.080Z,7.93
2023-03-21T02:30:56.408Z,9.82
2023-03-21T02:36:34.128Z,8.40
2023-03-21T02:41:40.634Z,8.48
2023-03-21T02:46:51.236Z,9.32
2023-03-21T02:52:08.737Z,8.13
2023-03-21T02:57:19.286Z,10.32
2023-03-21T03:02:26.212Z,8.48
2023-03-21T03:07:52.273Z,9.57
2023-03-21T03:13:09.325Z,8.68
2023-03-21T03:18:18.748Z,9.45
2023-03-21T03:23:30.614Z,7.55
2023-03-21T03:28:38.040Z,10.60
2023-03-21T03:33:48.238Z,8.37
2023-03-21T03:38:51.662Z,9.80
2023-03-21T03:43:57.869Z,8.98
2023-03-21T03:49:10.196Z,6.95
2023-03-21T03:54:21.079Z,8.45
2023-03-21T03:59:25.122Z,9.05
2023-03-21T04:04:38.247Z,7.47
2023-03-21T04:09:44.826Z,7.97
2023-03-21T04:14:49.995Z,10.02
2023-03-21T04:19:59.969Z,11.98
2023-03-21T04:25:08.025Z,9.98
2023-03-21T04:30:12.118Z,12.27
2023-03-21T04:35:37.754Z,10.38
2023-03-21T04:40:40.509Z,7.43
2023-03-21T04:45:42.792Z,9.57
2023-03-21T04:50:44.850Z,9.47
2023-03-21T04:55:46.778Z,8.07
2023-03-21T05:00:48.508Z,8.35
2023-03-21T05:05:50.808Z,12.07
2023-03-21T05:10:53.966Z,10.32
2023-03-21T05:15:56.592Z,11.00
2023-03-21T05:20:58.413Z,7.93
2023-03-21T05:26:00.976Z,9.63
2023-03-21T05:31:16.792Z,9.63
2023-03-21T05:36:20.541Z,7.72
2023-03-21T05:41:22.581Z,9.20
2023-03-21T05:46:24.673Z,11.17
2023-03-21T05:51:26.846Z,8.13
2023-03-21T05:56:28.623Z,9.83
2023-03-21T06:01:39.662Z,7.18
2023-03-21T06:06:46.956Z,7.97
2023-03-21T06:11:52.087Z,7.82
2023-03-21T06:17:02.555Z,8.02
2023-03-21T06:22:06.036Z,8.40
2023-03-21T06:27:11.295Z,9.55
2023-03-21T06:37:32.244Z,11.15
2023-03-21T06:42:34.205Z,8.32
2023-03-21T06:47:43.263Z,8.98
2023-03-21T06:52:54.668Z,7.57
2023-03-21T06:57:57.486Z,9.90
2023-03-21T07:03:02.265Z,12.55
2023-03-21T07:08:06.180Z,13.90
2023-03-21T07:13:10.448Z,11.18
2023-03-21T07:18:17.528Z,10.27
2023-03-21T07:23:25.220Z,8.85
2023-03-21T07:28:31.901Z,12.80
2023-03-21T07:33:34.059Z,9.30
2023-03-21T07:38:36.471Z,10.63
2023-03-21T07:43:39.427Z,10.47
2023-03-21T07:48:44.553Z,10.90
2023-03-21T07:53:48.678Z,13.00
2023-03-21T07:58:50.832Z,11.88
2023-03-21T08:03:53.692Z,13.17
2023-03-21T08:14:01.535Z,13.18
2023-03-21T08:19:03.474Z,10.43
2023-03-21T08:24:07.065Z,11.98
2023-03-21T08:29:09.105Z,13.07
2023-03-21T08:34:10.905Z,11.60
2023-03-21T08:39:12.797Z,11.77
2023-03-21T08:44:17.315Z,13.88
2023-03-21T08:49:20.053Z,11.65
2023-03-21T08:54:22.672Z,13.30
2023-03-21T08:59:24.313Z,13.10
2023-03-21T09:04:26.191Z,10.90
2023-03-21T09:09:29.021Z,11.17
2023-03-21T09:19:32.507Z,13.63
2023-03-21T09:24:34.434Z,9.93
2023-03-21T09:29:36.460Z,9.83
2023-03-21T09:34:41.170Z,9.33
2023-03-21T09:39:44.794Z,10.18
2023-03-21T09:45:17.790Z,7.95
2023-03-21T09:50:27.219Z,10.35
2023-03-21T09:55:36.641Z,8.75
2023-03-21T10:00:46.507Z,9.95
2023-03-21T10:05:49.024Z,10.48
2023-03-21T10:10:59.364Z,8.68
2023-03-21T10:16:10.896Z,7.45
2023-03-21T10:21:47.413Z,8.13
2023-03-21T10:26:44.787Z,10.32
2023-03-21T10:31:47.350Z,8.57
2023-03-21T10:36:49.399Z,9.68
2023-03-21T10:41:51.343Z,6.93
2023-03-21T10:46:58.882Z,6.97
2023-03-21T10:52:08.823Z,8.05
2023-03-21T10:57:21.740Z,8.80
2023-03-21T11:02:35.960Z,7.88
2023-03-21T11:07:38.059Z,7.47
2023-03-21T11:12:41.425Z,8.73
2023-03-21T11:17:45.320Z,7.95
2023-03-21T11:22:48.611Z,11.02
2023-03-21T11:27:53.790Z,7.82
2023-03-21T11:32:58.140Z,7.63
2023-03-21T11:38:00.014Z,8.02
2023-03-21T11:43:24.862Z,6.40
2023-03-21T11:48:27.546Z,9.52
2023-03-21T11:53:40.467Z,7.95
2023-03-21T11:59:13.571Z,6.72
2023-03-21T12:09:37.329Z,8.45
2023-03-21T12:14:59.258Z,8.00
2023-03-21T12:20:30.365Z,7.18
2023-03-21T12:25:42.616Z,9.35
2023-03-21T12:31:05.893Z,6.97
2023-03-21T12:41:49.132Z,6.78
2023-03-21T12:46:58.253Z,8.27
2023-03-21T12:52:06.508Z,7.35
2023-03-21T12:57:23.327Z,6.70
2023-03-21T13:02:31.623Z,10.20
2023-03-21T13:07:38.097Z,7.97
2023-03-21T13:13:00.828Z,6.30
2023-03-21T13:18:21.054Z,8.38
2023-03-21T13:23:25.275Z,8.30
2023-03-21T13:28:35.720Z,7.20
2023-03-21T13:33:44.566Z,8.18
2023-03-21T13:38:51.681Z,6.68
2023-03-21T13:43:55.844Z,9.15
2023-03-21T13:49:00.697Z,8.13
2023-03-21T13:54:08.253Z,7.07
2023-03-21T13:59:11.191Z,6.93
2023-03-21T14:04:24.149Z,7.45
2023-03-21T14:09:41.712Z,7.47
2023-03-21T14:14:51.201Z,7.07
2023-03-21T14:19:54.931Z,9.23
2023-03-21T14:24:59.767Z,8.18
2023-03-21T14:30:03.280Z,9.48
2023-03-21T14:35:11.680Z,7.60
2023-03-21T14:40:22.607Z,7.13
2023-03-21T14:45:27.926Z,7.38
2023-03-21T14:50:49.060Z,7.47
2023-03-21T14:56:01.995Z,7.35
2023-03-21T15:11:13.050Z,11.43
2023-03-21T15:16:15.313Z,7.27
2023-03-21T15:21:24.694Z,9.38
2023-03-21T15:26:27.301Z,15.52
2023-03-21T15:31:34.264Z,8.82
2023-03-21T15:36:43.754Z,7.80
2023-03-21T15:42:23.307Z,9.75
2023-03-21T15:48:02.330Z,6.13
2023-03-21T15:53:16.085Z,7.47
2023-03-21T15:58:23.936Z,8.30
2023-03-21T16:03:27.237Z,7.38
2023-03-21T16:08:36.890Z,5.90
2023-03-21T16:13:38.806Z,7.35
2023-03-21T16:18:40.452Z,9.68
2023-03-21T16:23:42.248Z,8.52
2023-03-21T16:28:47.165Z,7.72
2023-03-21T16:33:49.080Z,7.90
2023-03-21T16:38:55.128Z,8.53
2023-03-21T16:43:56.796Z,6.90
2023-03-21T16:48:58.740Z,7.90
2023-03-21T16:54:01.115Z,8.02
2023-03-21T16:59:03.234Z,14.65
2023-03-21T17:04:08.595Z,7.80
2023-03-21T17:09:13.290Z,6.97
2023-03-21T17:14:21.057Z,5.22
2023-03-21T17:19:27.870Z,5.25
2023-03-21T17:24:29.713Z,4.57
2023-03-21T17:29:31.570Z,6.00
2023-03-21T17:34:33.649Z,6.50
2023-03-21T17:39:35.577Z,4.40
2023-03-21T17:44:37.230Z,6.35
2023-03-21T17:49:39.173Z,4.33
2023-03-21T17:54:41.577Z,5.43
2023-03-21T17:59:43.580Z,5.28
2023-03-21T18:04:45.450Z,7.60
2023-03-21T18:09:47.343Z,6.37
2023-03-21T18:14:49.486Z,5.30
2023-03-21T18:19:51.283Z,5.57
2023-03-21T18:24:53.473Z,6.05
2023-03-21T18:30:25.692Z,4.93
2023-03-21T18:35:19.723Z,5.03
2023-03-21T18:40:24.043Z,5.07
2023-03-21T18:45:26.696Z,4.85
2023-03-21T18:50:28.562Z,6.28
2023-03-21T18:55:45.083Z,4.30
2023-03-21T19:00:50.098Z,4.38
2023-03-21T19:05:51.956Z,6.38
2023-03-21T19:10:54.020Z,3.60
2023-03-21T19:15:56.315Z,4.05
2023-03-21T19:21:00.805Z,6.80
2023-03-21T19:26:02.709Z,4.57
2023-03-21T19:31:06.135Z,4.78
2023-03-21T19:36:17.913Z,6.05
2023-03-21T19:41:23.332Z,4.65
2023-03-21T19:46:26.382Z,7.38
2023-03-21T19:51:30.015Z,6.18
2023-03-21T19:56:34.577Z,7.40
2023-03-21T20:01:36.923Z,6.63
2023-03-21T20:06:38.996Z,5.82
2023-03-21T20:11:40.790Z,5.93
2023-03-21T20:16:43.727Z,8.05
2023-03-21T20:21:53.084Z,6.50
2023-03-21T20:26:58.281Z,5.40
2023-03-21T20:32:00.061Z,6.97
2023-03-21T20:37:03.170Z,4.72
2023-03-21T20:42:05.533Z,7.53
2023-03-21T20:47:08.263Z,7.35
2023-03-21T20:57:32.600Z,9.15
2023-03-21T21:02:34.473Z,5.82
2023-03-21T21:07:36.076Z,5.55
2023-03-21T21:12:39.437Z,7.07
2023-03-21T21:23:04.458Z,6.85
2023-03-21T21:28:09.441Z,5.55
2023-03-21T21:33:11.415Z,4.82
2023-03-21T21:38:19.213Z,6.20
2023-03-21T21:43:21.187Z,5.97
2023-03-21T21:48:23.406Z,8.87
2023-03-21T21:53:28.174Z,10.40
2023-03-21T21:58:33.783Z,7.78
2023-03-21T22:03:41.642Z,7.97
2023-03-21T22:08:46.852Z,8.18
2023-03-21T22:13:49.043Z,8.20
2023-03-21T22:18:50.748Z,7.55
2023-03-21T22:23:52.418Z,8.05
2023-03-21T22:28:54.109Z,5.85
2023-03-21T22:33:55.985Z,7.13
2023-03-21T22:38:57.994Z,9.13
2023-03-21T22:43:59.749Z,9.60
2023-03-21T22:49:01.893Z,7.53
2023-03-21T22:54:03.768Z,11.88
2023-03-21T22:59:05.628Z,9.88
2023-03-21T23:04:07.579Z,8.57
2023-03-21T23:09:10.125Z,10.40
2023-03-21T23:14:15.144Z,11.38
2023-03-21T23:19:17.382Z,9.90
2023-03-21T23:24:19.109Z,14.50
2023-03-21T23:29:20.885Z,12.40
2023-03-21T23:34:22.680Z,13.65
2023-03-21T23:39:24.521Z,10.38
2023-03-21T23:44:27.399Z,9.30
2023-03-21T23:49:33.309Z,10.40
2023-03-21T23:54:35.181Z,8.18
2023-03-21T23:59:36.884Z,7.88
